Time;durP1;ratioP1;P1;durP2;ratioP2;P2;SDS_P1;SDS_P2;PMS_P1;PMS_P2;Temp;Humidity;BMP_temperature;BMP_pressure;BME280_temperature;BME280_humidity;BME280_pressure;Samples;Min_cycle;Max_cycle;Signal;HPM_P1;HPM_P2
2022/01/15 00:01:04;;;;;;;63.03;24.17;;;3.00;99.90;;;;;;5053360;28;20237;-46
2022/01/15 00:03:30;;;;;;;69.10;26.37;;;3.00;99.90;;;;;;5053158;28;20180;-44
2022/01/15 00:05:56;;;;;;;70.93;26.37;;;3.00;99.90;;;;;;5053987;28;20207;-46
2022/01/15 00:08:22;;;;;;;72.60;26.07;;;3.00;99.90;;;;;;5054475;28;20532;-45
2022/01/15 00:10:48;;;;;;;78.20;25.33;;;3.00;99.90;;;;;;5053116;28;20184;-43
2022/01/15 00:13:23;;;;;;;74.87;25.53;;;3.00;99.90;;;;;;5054609;28;20253;-45
2022/01/15 00:16:00;;;;;;;62.73;24.53;;;3.00;99.90;;;;;;5054558;28;20282;-46
2022/01/15 00:18:40;;;;;;;82.93;27.87;;;3.00;99.90;;;;;;5053384;28;20186;-45
2022/01/15 00:21:05;;;;;;;83.17;25.10;;;3.00;99.90;;;;;;5052886;28;20663;-43
2022/01/15 00:23:31;;;;;;;79.13;24.53;;;3.00;99.90;;;;;;5054271;28;20180;-45
2022/01/15 00:25:56;;;;;;;68.83;22.90;;;3.00;99.90;;;;;;5052917;28;20211;-46
2022/01/15 00:28:22;;;;;;;70.00;23.90;;;3.00;99.90;;;;;;5054097;28;20647;-45
2022/01/15 00:30:48;;;;;;;71.63;24.60;;;3.00;99.90;;;;;;5052798;28;20203;-46
2022/01/15 00:33:13;;;;;;;71.23;24.83;;;3.00;99.90;;;;;;5054048;28;20300;-44
2022/01/15 00:35:39;;;;;;;85.07;24.23;;;3.00;99.90;;;;;;5053856;28;20684;-45
2022/01/15 00:38:05;;;;;;;74.43;25.00;;;2.90;99.90;;;;;;5054664;28;20254;-43
2022/01/15 00:40:30;;;;;;;100.20;26.63;;;3.00;99.90;;;;;;5052868;28;20180;-46
2022/01/15 00:42:56;;;;;;;86.53;27.03;;;2.90;99.90;;;;;;5052552;28;20182;-44
2022/01/15 00:45:22;;;;;;;87.67;27.07;;;3.00;99.90;;;;;;5053748;28;20216;-46
2022/01/15 00:47:50;;;;;;;80.47;26.90;;;3.00;99.90;;;;;;5052519;28;20188;-44
2022/01/15 00:50:16;;;;;;;98.53;27.43;;;2.90;99.90;;;;;;5052340;28;20214;-46
2022/01/15 00:52:42;;;;;;;98.33;31.23;;;3.00;99.90;;;;;;5052456;28;20276;-46
2022/01/15 00:55:10;;;;;;;89.67;26.73;;;3.00;99.90;;;;;;5052261;28;20180;-45
2022/01/15 00:57:35;;;;;;;108.77;29.70;;;3.00;99.90;;;;;;5052279;28;20187;-45
2022/01/15 01:00:01;;;;;;;71.73;27.13;;;3.00;99.90;;;;;;5053661;28;20184;-46
2022/01/15 01:02:26;;;;;;;100.53;29.37;;;2.90;99.90;;;;;;5053723;28;20611;-44
2022/01/15 01:04:52;;;;;;;75.83;27.43;;;2.90;99.90;;;;;;5053758;28;20283;-44
2022/01/15 01:07:18;;;;;;;83.23;28.47;;;2.90;99.90;;;;;;5052148;28;20279;-43
2022/01/15 01:12:33;;;;;;;81.27;27.53;;;2.90;99.90;;;;;;5053299;28;20161;-44
2022/01/15 01:22:58;;;;;;;80.97;29.17;;;2.90;99.90;;;;;;5053405;28;20218;-44
2022/01/15 01:25:35;;;;;;;86.50;30.07;;;2.80;99.90;;;;;;5053635;28;20735;-45
2022/01/15 01:28:08;;;;;;;77.70;26.67;;;2.80;99.90;;;;;;5052169;28;20286;-46
2022/01/15 01:30:42;;;;;;;82.13;26.80;;;2.80;99.90;;;;;;5052229;28;20222;-46
2022/01/15 01:36:03;;;;;;;83.90;28.90;;;2.80;99.90;;;;;;5053148;28;20199;-44
2022/01/15 01:38:34;;;;;;;89.33;28.87;;;2.70;99.90;;;;;;5051857;28;20222;-45
2022/01/15 01:41:01;;;;;;;98.10;29.30;;;2.80;99.90;;;;;;5053485;28;20164;-43
2022/01/15 01:46:14;;;;;;;102.87;30.00;;;2.70;99.90;;;;;;5053322;28;20200;-45
2022/01/15 01:48:40;;;;;;;74.40;27.50;;;2.70;99.90;;;;;;5054924;28;20169;-46
2022/01/15 01:51:07;;;;;;;90.90;27.67;;;2.70;99.90;;;;;;5057348;28;20191;-45
2022/01/15 01:53:38;;;;;;;90.80;29.13;;;2.70;99.90;;;;;;5055747;28;20203;-45
2022/01/15 01:56:04;;;;;;;85.63;27.03;;;2.70;99.90;;;;;;5057083;28;20222;-46
2022/01/15 01:58:30;;;;;;;98.93;26.93;;;2.70;99.90;;;;;;5057248;28;20211;-44
2022/01/15 02:00:55;;;;;;;73.23;25.47;;;2.60;99.90;;;;;;5055728;28;20636;-44
2022/01/15 02:03:21;;;;;;;75.47;25.27;;;2.60;99.90;;;;;;5057138;28;20184;-45
2022/01/15 02:05:47;;;;;;;88.47;23.87;;;2.60;99.90;;;;;;5056655;28;20227;-44
2022/01/15 02:08:13;;;;;;;78.23;24.87;;;2.60;99.90;;;;;;5057249;28;20184;-44
2022/01/15 02:10:38;;;;;;;121.40;24.07;;;2.50;99.90;;;;;;5056695;28;20180;-42
2022/01/15 02:13:08;;;;;;;96.93;23.10;;;2.50;99.90;;;;;;5055337;28;20710;-45
2022/01/15 02:15:36;;;;;;;95.23;22.93;;;2.50;99.90;;;;;;5057032;28;20196;-43
2022/01/15 02:18:02;;;;;;;86.27;21.97;;;2.50;99.90;;;;;;5056742;28;20238;-45
2022/01/15 02:25:44;;;;;;;86.57;20.97;;;2.50;99.90;;;;;;5056628;28;20223;-44
2022/01/15 02:28:10;;;;;;;93.77;22.80;;;2.50;99.90;;;;;;5055355;28;20188;-45
2022/01/15 02:30:36;;;;;;;74.73;20.97;;;2.40;99.90;;;;;;5056386;28;20196;-44
2022/01/15 02:33:03;;;;;;;78.70;21.00;;;2.40;99.90;;;;;;5055037;28;20203;-45
2022/01/15 02:35:29;;;;;;;76.53;20.47;;;2.40;99.90;;;;;;5054974;28;20203;-46
2022/01/15 02:38:01;;;;;;;65.17;20.70;;;2.40;99.90;;;;;;5054940;28;20198;-45
2022/01/15 02:40:27;;;;;;;81.87;21.77;;;2.40;99.90;;;;;;5057007;28;20168;-45
2022/01/15 02:42:52;;;;;;;62.50;19.43;;;2.40;99.90;;;;;;5054890;28;20184;-44
2022/01/15 02:45:22;;;;;;;77.97;20.00;;;2.40;99.90;;;;;;5055893;28;20207;-44
2022/01/15 02:48:02;;;;;;;68.70;20.53;;;2.40;99.90;;;;;;5054795;28;20194;-46
2022/01/15 02:50:29;;;;;;;78.47;20.00;;;2.40;99.90;;;;;;5056320;28;20165;-45
2022/01/15 02:52:55;;;;;;;61.07;19.37;;;2.40;99.90;;;;;;5056109;28;20293;-45
2022/01/15 02:55:21;;;;;;;79.70;19.40;;;2.40;99.90;;;;;;5056275;28;20622;-45
2022/01/15 02:57:46;;;;;;;52.33;19.20;;;2.40;99.90;;;;;;5055873;28;20207;-45
2022/01/15 03:00:12;;;;;;;54.93;19.60;;;2.40;99.90;;;;;;5054415;28;20564;-45
2022/01/15 03:02:38;;;;;;;58.30;17.23;;;2.40;99.90;;;;;;5056313;28;20601;-45
2022/01/15 03:05:04;;;;;;;68.20;17.67;;;2.30;99.90;;;;;;5055844;28;20187;-46
2022/01/15 03:07:30;;;;;;;59.63;18.27;;;2.30;99.90;;;;;;5054720;28;20209;-44
2022/01/15 03:09:55;;;;;;;66.53;17.83;;;2.30;99.90;;;;;;5054689;28;20191;-43
2022/01/15 03:12:22;;;;;;;54.60;17.47;;;2.30;99.90;;;;;;5054213;28;20199;-44
2022/01/15 03:14:48;;;;;;;59.37;18.17;;;2.30;99.90;;;;;;5055430;28;20633;-43
2022/01/15 03:17:14;;;;;;;57.77;18.37;;;2.30;99.90;;;;;;5055559;28;20192;-44
2022/01/15 03:19:40;;;;;;;55.90;18.77;;;2.30;99.90;;;;;;5055634;28;20251;-44
2022/01/15 03:22:05;;;;;;;54.60;17.87;;;2.30;99.90;;;;;;5054166;28;20188;-44
2022/01/15 03:24:31;;;;;;;55.53;17.67;;;2.30;99.90;;;;;;5055742;28;20203;-46
2022/01/15 03:26:57;;;;;;;55.10;17.13;;;2.30;99.90;;;;;;5054464;28;20287;-46
2022/01/15 03:29:23;;;;;;;62.20;18.07;;;2.30;99.90;;;;;;5055714;28;20183;-45
2022/01/15 03:31:48;;;;;;;43.63;16.80;;;2.30;99.90;;;;;;5055472;28;20686;-46
2022/01/15 03:34:14;;;;;;;60.47;17.57;;;2.30;99.90;;;;;;5055771;28;20662;-45
2022/01/15 03:36:40;;;;;;;53.60;17.40;;;2.30;99.90;;;;;;5054461;28;20203;-46
2022/01/15 03:39:07;;;;;;;50.33;16.60;;;2.30;99.90;;;;;;5054260;28;20182;-46
2022/01/15 03:41:33;;;;;;;68.03;17.53;;;2.20;99.90;;;;;;5056199;28;20184;-44
2022/01/15 03:43:58;;;;;;;64.80;16.70;;;2.20;99.90;;;;;;5054590;28;20236;-45
2022/01/15 03:46:24;;;;;;;69.33;19.70;;;2.20;99.90;;;;;;5053959;28;20210;-47
2022/01/15 03:48:50;;;;;;;72.60;16.87;;;2.20;99.90;;;;;;5055414;28;20664;-45
2022/01/15 03:51:19;;;;;;;60.07;15.60;;;2.20;99.90;;;;;;5054248;28;20202;-46
2022/01/15 03:53:45;;;;;;;60.17;16.10;;;2.30;99.90;;;;;;5054023;28;20233;-46
2022/01/15 03:56:11;;;;;;;49.77;17.30;;;2.20;99.90;;;;;;5055294;28;20196;-46
2022/01/15 03:58:37;;;;;;;47.97;15.93;;;2.20;99.90;;;;;;5055995;28;20269;-46
2022/01/15 04:01:03;;;;;;;66.87;18.10;;;2.20;99.90;;;;;;5054697;28;20181;-45
2022/01/15 04:03:29;;;;;;;44.30;15.13;;;2.20;99.90;;;;;;5054648;28;20183;-46
2022/01/15 04:05:54;;;;;;;47.90;15.67;;;2.20;99.90;;;;;;5053270;28;20238;-45
2022/01/15 04:08:20;;;;;;;49.00;15.47;;;2.20;99.90;;;;;;5053227;28;20184;-44
2022/01/15 04:10:46;;;;;;;56.67;16.03;;;2.30;99.90;;;;;;5053109;28;20184;-45
2022/01/15 04:13:15;;;;;;;44.83;16.00;;;2.20;99.90;;;;;;5052923;28;20207;-46
2022/01/15 04:15:41;;;;;;;42.37;14.90;;;2.30;99.90;;;;;;5054562;28;20675;-43
2022/01/15 04:18:07;;;;;;;39.53;16.70;;;2.20;99.90;;;;;;5054583;28;20418;-45
2022/01/15 04:20:32;;;;;;;55.37;15.90;;;2.20;99.90;;;;;;5054613;28;20179;-44
2022/01/15 04:22:58;;;;;;;35.70;11.53;;;2.20;99.90;;;;;;5054815;28;20259;-46
2022/01/15 04:25:24;;;;;;;47.00;15.73;;;2.20;99.90;;;;;;5054270;28;20275;-46
2022/01/15 04:27:50;;;;;;;46.73;16.30;;;2.20;99.90;;;;;;5054708;28;20179;-47
2022/01/15 04:30:18;;;;;;;37.80;13.90;;;2.10;99.90;;;;;;5054487;28;20199;-47
2022/01/15 04:32:44;;;;;;;39.47;12.77;;;2.10;99.90;;;;;;5055054;28;20198;-46
2022/01/15 04:35:11;;;;;;;34.23;14.60;;;2.10;99.90;;;;;;5036849;28;20288;-45
2022/01/15 04:37:47;;;;;;;39.27;14.40;;;2.10;99.90;;;;;;5053206;28;20179;-47
2022/01/15 04:40:14;;;;;;;38.40;14.57;;;2.10;99.90;;;;;;5054386;28;20641;-47
2022/01/15 04:42:40;;;;;;;24.60;9.43;;;2.10;99.90;;;;;;5052617;28;20198;-47
2022/01/15 04:45:09;;;;;;;44.57;14.80;;;2.00;99.90;;;;;;5052757;28;20180;-48
2022/01/15 04:47:36;;;;;;;39.33;13.13;;;2.10;99.90;;;;;;5053798;28;20183;-44
2022/01/15 04:50:05;;;;;;;61.50;13.87;;;2.00;99.90;;;;;;5052457;28;20759;-46
2022/01/15 04:52:33;;;;;;;27.73;11.73;;;2.00;99.90;;;;;;5052467;28;20211;-47
2022/01/15 04:55:01;;;;;;;45.40;14.53;;;2.00;99.90;;;;;;5053487;28;20171;-48
2022/01/15 04:57:27;;;;;;;46.07;14.67;;;2.00;99.90;;;;;;5053942;28;20194;-48
2022/01/15 04:59:53;;;;;;;77.33;19.40;;;2.00;99.90;;;;;;5053629;28;20190;-48
2022/01/15 05:02:19;;;;;;;46.57;15.77;;;2.00;99.90;;;;;;5052313;28;20180;-47
2022/01/15 05:04:45;;;;;;;63.10;13.27;;;2.00;99.90;;;;;;5053509;28;20178;-48
2022/01/15 05:07:11;;;;;;;34.97;10.03;;;2.00;99.90;;;;;;5053727;28;20221;-48
2022/01/15 05:09:38;;;;;;;68.63;13.70;;;2.00;99.90;;;;;;5052196;28;20644;-46
2022/01/15 05:12:27;;;;;;;53.93;14.20;;;2.00;99.90;;;;;;5035665;28;20431;-47
2022/01/15 05:14:50;;;;;;;57.50;12.10;;;2.00;99.90;;;;;;5053403;28;20180;-46
2022/01/15 05:17:16;;;;;;;46.50;13.07;;;2.00;99.90;;;;;;5053950;28;20191;-45
2022/01/15 05:19:41;;;;;;;35.83;12.63;;;2.00;99.90;;;;;;5052090;28;20283;-45
2022/01/15 05:22:13;;;;;;;46.47;14.07;;;2.00;99.90;;;;;;5052428;28;20606;-43
2022/01/15 05:24:39;;;;;;;40.70;11.97;;;2.10;99.90;;;;;;5051875;28;20165;-47
2022/01/15 05:27:05;;;;;;;38.40;10.70;;;2.00;99.90;;;;;;5051975;28;20570;-47
2022/01/15 05:29:31;;;;;;;70.43;13.07;;;2.00;99.90;;;;;;5053286;28;20174;-48
2022/01/15 05:31:57;;;;;;;39.10;13.27;;;2.00;99.90;;;;;;5051879;28;20559;-47
2022/01/15 05:34:22;;;;;;;25.67;9.53;;;2.00;99.90;;;;;;5053041;28;20682;-47
2022/01/15 05:36:48;;;;;;;43.87;11.37;;;1.90;99.90;;;;;;5052065;28;20561;-47
2022/01/15 05:39:14;;;;;;;23.30;10.20;;;1.90;99.90;;;;;;5054196;28;20172;-47
2022/01/15 05:41:40;;;;;;;22.00;8.00;;;2.00;99.90;;;;;;5053553;28;20716;-48
2022/01/15 05:44:05;;;;;;;26.60;11.90;;;1.90;99.90;;;;;;5052563;28;20242;-47
2022/01/15 05:46:33;;;;;;;62.00;12.27;;;1.90;99.90;;;;;;5053297;28;20196;-46
2022/01/15 05:49:00;;;;;;;55.83;12.57;;;1.90;99.90;;;;;;5053292;28;20263;-48
2022/01/15 05:51:29;;;;;;;52.47;14.43;;;1.90;99.90;;;;;;5053178;28;20175;-47
2022/01/15 05:54:00;;;;;;;27.57;10.60;;;1.90;99.90;;;;;;5051707;28;20601;-48
2022/01/15 05:56:26;;;;;;;26.63;10.73;;;1.90;99.90;;;;;;5053186;28;20462;-47
2022/01/15 05:58:52;;;;;;;32.57;10.37;;;1.90;99.90;;;;;;5053180;28;20577;-48
2022/01/15 06:01:18;;;;;;;44.37;10.43;;;1.90;99.90;;;;;;5052892;28;20182;-48
2022/01/15 06:03:44;;;;;;;29.20;9.77;;;1.80;99.90;;;;;;5051922;28;20179;-47
2022/01/15 06:06:10;;;;;;;8.70;4.87;;;1.80;99.90;;;;;;5053022;28;20199;-47
2022/01/15 06:08:36;;;;;;;43.10;12.30;;;1.80;99.90;;;;;;5053157;28;20183;-47
2022/01/15 06:11:02;;;;;;;43.10;12.03;;;1.80;99.90;;;;;;5053120;28;20219;-48
2022/01/15 06:13:28;;;;;;;37.50;13.17;;;1.80;99.90;;;;;;5053001;28;20345;-46
2022/01/15 06:15:54;;;;;;;43.87;11.27;;;1.80;99.90;;;;;;5053105;28;20559;-49
2022/01/15 06:18:20;;;;;;;38.67;9.53;;;1.80;99.90;;;;;;5053211;28;20175;-48
2022/01/15 06:20:45;;;;;;;28.57;10.67;;;1.80;99.90;;;;;;5053057;28;20639;-49
2022/01/15 06:23:12;;;;;;;36.40;11.60;;;1.80;99.90;;;;;;5052935;28;20419;-49
2022/01/15 06:25:37;;;;;;;42.37;12.33;;;1.80;99.90;;;;;;5051263;28;20213;-47
2022/01/15 06:28:03;;;;;;;63.13;12.13;;;1.80;99.90;;;;;;5052925;28;20183;-48
2022/01/15 06:30:29;;;;;;;15.97;8.93;;;1.80;99.90;;;;;;5052731;28;20212;-48
2022/01/15 06:32:55;;;;;;;25.67;8.73;;;1.80;99.90;;;;;;5052762;28;20214;-46
2022/01/15 06:35:21;;;;;;;71.00;13.60;;;1.80;99.90;;;;;;5053194;28;20219;-47
2022/01/15 06:37:47;;;;;;;48.53;13.57;;;1.80;99.90;;;;;;5054883;28;20186;-47
2022/01/15 06:40:15;;;;;;;60.20;11.13;;;1.70;99.90;;;;;;5054942;28;20175;-48
2022/01/15 06:42:42;;;;;;;33.80;10.53;;;1.80;99.90;;;;;;5056612;28;20194;-47
2022/01/15 06:45:09;;;;;;;25.17;8.80;;;1.80;99.90;;;;;;5056105;28;20187;-48
2022/01/15 06:47:35;;;;;;;53.00;12.27;;;1.70;99.90;;;;;;5056949;28;20254;-46
2022/01/15 06:50:04;;;;;;;43.93;11.37;;;1.70;99.90;;;;;;5054722;28;20635;-48
2022/01/15 06:52:32;;;;;;;53.40;11.40;;;1.70;99.90;;;;;;5056331;28;20175;-48
2022/01/15 06:54:59;;;;;;;23.33;8.60;;;1.60;99.90;;;;;;5054579;28;20193;-47
2022/01/15 06:57:24;;;;;;;64.40;12.67;;;1.60;99.90;;;;;;5054530;28;20269;-49
2022/01/15 06:59:52;;;;;;;65.27;13.77;;;1.60;99.90;;;;;;5055903;28;20337;-49
2022/01/15 07:02:17;;;;;;;50.57;12.20;;;1.60;99.90;;;;;;5055889;28;20176;-48
2022/01/15 07:04:43;;;;;;;76.37;14.43;;;1.60;99.90;;;;;;5055834;28;20202;-48
2022/01/15 07:07:12;;;;;;;62.37;13.00;;;1.60;99.90;;;;;;5054223;28;20207;-48
2022/01/15 07:09:39;;;;;;;70.23;14.97;;;1.60;99.90;;;;;;5054416;28;20221;-48
2022/01/15 07:12:05;;;;;;;36.07;12.17;;;1.60;99.90;;;;;;5054033;28;20187;-44
2022/01/15 07:14:31;;;;;;;39.80;12.17;;;1.60;99.90;;;;;;5055764;28;20211;-45
2022/01/15 07:17:04;;;;;;;62.00;13.47;;;1.60;99.90;;;;;;5055944;28;20191;-45
2022/01/15 07:19:31;;;;;;;64.07;14.83;;;1.60;99.90;;;;;;5054933;28;20319;-48
2022/01/15 07:21:58;;;;;;;57.93;14.93;;;1.60;99.90;;;;;;5054640;28;20429;-46
2022/01/15 07:24:23;;;;;;;39.07;13.70;;;1.60;99.90;;;;;;5056203;28;20185;-48
2022/01/15 07:26:49;;;;;;;78.03;13.67;;;1.60;99.90;;;;;;5055147;28;20232;-48
2022/01/15 07:29:16;;;;;;;41.97;14.40;;;1.60;99.90;;;;;;5053807;28;20553;-48
2022/01/15 07:31:46;;;;;;;43.33;13.00;;;1.60;99.90;;;;;;5055062;28;20592;-47
2022/01/15 07:34:12;;;;;;;70.37;17.07;;;1.50;99.90;;;;;;5053673;28;20365;-48
2022/01/15 07:36:39;;;;;;;38.27;14.07;;;1.60;99.90;;;;;;5055007;28;20235;-48
2022/01/15 07:39:07;;;;;;;36.73;13.73;;;1.50;99.90;;;;;;5053611;28;20445;-47
2022/01/15 07:41:33;;;;;;;25.90;11.53;;;1.50;99.90;;;;;;5053599;28;20214;-47
2022/01/15 07:43:59;;;;;;;23.17;12.20;;;1.60;99.90;;;;;;5055132;28;20261;-48
2022/01/15 07:46:26;;;;;;;47.07;17.70;;;1.50;99.90;;;;;;5052613;28;20617;-47
2022/01/15 07:48:52;;;;;;;54.83;17.93;;;1.50;99.90;;;;;;5053498;28;20556;-48
2022/01/15 07:51:18;;;;;;;49.43;16.57;;;1.60;99.90;;;;;;5054723;28;20188;-47
2022/01/15 07:53:44;;;;;;;48.20;18.00;;;1.60;99.90;;;;;;5054500;28;20214;-47
2022/01/15 07:56:12;;;;;;;36.03;14.73;;;1.60;99.90;;;;;;5053304;28;20204;-47
2022/01/15 07:58:38;;;;;;;32.07;13.70;;;1.60;99.90;;;;;;5053312;28;20269;-47
2022/01/15 08:01:05;;;;;;;37.90;15.23;;;1.60;99.90;;;;;;5054529;28;20496;-48
2022/01/15 08:03:31;;;;;;;37.83;15.00;;;1.60;99.90;;;;;;5054665;28;20171;-48
2022/01/15 08:05:58;;;;;;;34.53;15.23;;;1.60;99.90;;;;;;5054618;28;20819;-48
2022/01/15 08:08:24;;;;;;;31.63;15.47;;;1.50;99.90;;;;;;5053259;28;20421;-48
2022/01/15 08:10:49;;;;;;;37.73;18.73;;;1.60;99.90;;;;;;5054351;28;20179;-48
2022/01/15 08:13:16;;;;;;;41.53;18.97;;;1.50;99.90;;;;;;5052986;28;20214;-49
2022/01/15 08:15:42;;;;;;;37.07;18.43;;;1.60;99.90;;;;;;5052936;28;20231;-48
2022/01/15 08:18:08;;;;;;;35.27;17.10;;;1.60;99.90;;;;;;5053131;28;20216;-47
2022/01/15 08:20:34;;;;;;;29.50;14.93;;;1.60;99.90;;;;;;5052913;28;20183;-47
2022/01/15 08:22:59;;;;;;;32.33;18.00;;;1.60;99.90;;;;;;5052880;28;20270;-47
2022/01/15 08:25:27;;;;;;;42.77;17.40;;;1.60;99.90;;;;;;5052779;28;20272;-48
2022/01/15 08:31:16;;;;;;;36.20;18.60;;;1.60;99.90;;;;;;5054568;28;20197;-48
2022/01/15 08:33:42;;;;;;;32.67;18.20;;;1.60;99.90;;;;;;5053390;28;20257;-46
2022/01/15 08:36:08;;;;;;;34.47;17.83;;;1.60;99.90;;;;;;5052689;28;20206;-46
2022/01/15 08:38:34;;;;;;;38.10;18.20;;;1.60;99.90;;;;;;5052723;28;20819;-47
2022/01/15 08:41:00;;;;;;;42.20;18.67;;;1.60;99.90;;;;;;5052675;28;20749;-47
2022/01/15 08:43:26;;;;;;;33.00;17.50;;;1.60;99.90;;;;;;5053014;28;20233;-47
2022/01/15 08:45:52;;;;;;;37.87;18.33;;;1.60;99.90;;;;;;5053907;28;20624;-47
2022/01/15 08:48:19;;;;;;;34.33;16.70;;;1.60;99.90;;;;;;5052357;28;20214;-48
2022/01/15 08:50:48;;;;;;;43.07;16.43;;;1.60;99.90;;;;;;5053717;28;20183;-47
2022/01/15 08:53:17;;;;;;;27.47;13.70;;;1.70;99.90;;;;;;5053734;28;20268;-48
2022/01/15 08:55:44;;;;;;;28.03;14.70;;;1.70;99.90;;;;;;5052523;28;20252;-47
2022/01/15 08:58:10;;;;;;;25.40;15.00;;;1.70;99.90;;;;;;5052294;28;20179;-48
2022/01/15 09:00:37;;;;;;;28.30;15.30;;;1.60;99.90;;;;;;5052376;28;20425;-49
2022/01/15 09:03:04;;;;;;;25.67;14.97;;;1.70;99.90;;;;;;5052151;28;20436;-48
2022/01/15 09:05:32;;;;;;;20.53;12.77;;;1.70;99.90;;;;;;5053513;28;20209;-48
2022/01/15 09:07:58;;;;;;;26.60;14.87;;;1.70;99.90;;;;;;5052048;28;20209;-47
2022/01/15 09:10:23;;;;;;;35.70;16.90;;;1.70;99.90;;;;;;5052048;28;20421;-48
2022/01/15 09:12:49;;;;;;;35.63;16.07;;;1.70;99.90;;;;;;5054567;28;20475;-45
2022/01/15 09:15:16;;;;;;;22.57;14.60;;;1.70;99.90;;;;;;5052511;28;20670;-44
2022/01/15 09:17:42;;;;;;;24.63;14.53;;;1.70;99.90;;;;;;5052849;28;20586;-45
2022/01/15 09:20:09;;;;;;;20.73;12.93;;;1.70;99.90;;;;;;5052898;28;20429;-45
2022/01/15 09:22:35;;;;;;;24.07;13.70;;;1.70;99.90;;;;;;5052506;28;20510;-45
2022/01/15 09:25:01;;;;;;;16.33;10.30;;;1.60;99.90;;;;;;5052134;28;20218;-46
2022/01/15 09:30:12;;;;;;;29.53;15.13;;;1.70;99.90;;;;;;5053221;28;20193;-45
2022/01/15 09:32:43;;;;;;;19.40;12.47;;;1.70;99.90;;;;;;5054537;28;20551;-46
2022/01/15 09:35:09;;;;;;;23.97;13.93;;;1.70;99.90;;;;;;5053102;28;20471;-47
2022/01/15 09:37:35;;;;;;;19.93;12.17;;;1.70;99.90;;;;;;5053273;28;20616;-47
2022/01/15 09:40:02;;;;;;;25.30;14.90;;;1.80;99.90;;;;;;5056138;28;20172;-46
2022/01/15 09:42:29;;;;;;;28.77;14.37;;;1.80;99.90;;;;;;5054540;28;20270;-45
2022/01/15 09:44:55;;;;;;;25.40;15.90;;;1.80;99.90;;;;;;5053422;28;20229;-47
2022/01/15 09:47:22;;;;;;;26.13;14.87;;;1.90;99.90;;;;;;5053437;28;20921;-45
2022/01/15 09:49:49;;;;;;;24.43;13.20;;;1.90;99.90;;;;;;5053455;28;20191;-47
2022/01/15 09:52:16;;;;;;;16.73;9.63;;;1.90;99.90;;;;;;5052681;28;20186;-45
2022/01/15 09:54:43;;;;;;;19.37;11.67;;;1.90;99.90;;;;;;5053715;28;20203;-46
2022/01/15 09:57:09;;;;;;;27.30;16.27;;;1.90;99.90;;;;;;5054097;28;20204;-46
2022/01/15 09:59:36;;;;;;;23.30;14.83;;;2.00;99.90;;;;;;5052692;28;20421;-47
2022/01/15 10:02:04;;;;;;;23.50;15.10;;;1.90;99.90;;;;;;5054623;28;20171;-46
2022/01/15 10:04:32;;;;;;;21.97;12.97;;;2.00;99.90;;;;;;5054282;28;20188;-48
2022/01/15 10:07:13;;;;;;;27.70;15.33;;;2.00;99.90;;;;;;5052491;28;20229;-46
2022/01/15 10:09:39;;;;;;;14.67;8.43;;;2.00;99.90;;;;;;5055065;28;20172;-45
2022/01/15 10:12:06;;;;;;;23.57;14.67;;;2.00;99.90;;;;;;5056221;28;20436;-46
2022/01/15 10:14:33;;;;;;;24.73;14.13;;;2.00;99.90;;;;;;5057896;28;20274;-47
2022/01/15 10:17:02;;;;;;;23.50;14.13;;;2.10;99.90;;;;;;5056367;28;20203;-47
2022/01/15 10:19:32;;;;;;;23.23;13.43;;;2.10;99.90;;;;;;5057583;28;20265;-47
2022/01/15 10:22:16;;;;;;;24.53;15.77;;;2.10;99.90;;;;;;5057655;28;20394;-47
2022/01/15 10:24:50;;;;;;;20.60;12.47;;;2.10;99.90;;;;;;5056296;28;20951;-47
2022/01/15 10:27:29;;;;;;;25.60;14.03;;;2.10;99.90;;;;;;5056010;28;20209;-47
2022/01/15 10:30:19;;;;;;;20.80;13.07;;;2.20;99.90;;;;;;5057390;28;20168;-46
2022/01/15 10:33:06;;;;;;;13.60;8.00;;;2.20;99.90;;;;;;5057411;28;20210;-47
2022/01/15 10:35:37;;;;;;;16.53;9.83;;;2.20;99.90;;;;;;5055905;28;20202;-47
2022/01/15 10:38:12;;;;;;;21.63;11.70;;;2.20;99.90;;;;;;5057133;28;20402;-47
2022/01/15 10:40:44;;;;;;;14.83;9.07;;;2.30;99.90;;;;;;5056162;28;20176;-47
2022/01/15 10:43:12;;;;;;;22.43;13.37;;;2.30;99.90;;;;;;5057598;28;20538;-47
2022/01/15 10:45:55;;;;;;;23.10;13.70;;;2.30;99.90;;;;;;5055777;28;20199;-46
2022/01/15 10:48:31;;;;;;;21.80;12.70;;;2.30;99.90;;;;;;5055803;28;20498;-45
2022/01/15 10:51:01;;;;;;;20.40;12.83;;;2.30;99.90;;;;;;5055688;28;20197;-45
2022/01/15 10:53:44;;;;;;;22.93;13.40;;;2.40;99.90;;;;;;5057205;28;20211;-48
2022/01/15 10:56:12;;;;;;;15.93;9.73;;;2.40;99.90;;;;;;5057594;28;20518;-44
2022/01/15 10:58:38;;;;;;;22.33;13.70;;;2.40;99.90;;;;;;5055647;28;20206;-46
2022/01/15 11:01:05;;;;;;;22.83;14.23;;;2.40;99.90;;;;;;5057231;28;20224;-45
2022/01/15 11:03:44;;;;;;;24.97;14.43;;;2.50;99.90;;;;;;5067044;23;20239;-47
2022/01/15 11:06:09;;;;;;;24.30;13.07;;;2.50;99.90;;;;;;5055863;28;20191;-47
2022/01/15 11:08:37;;;;;;;9.33;5.53;;;2.50;99.90;;;;;;5038395;28;20593;-48
2022/01/15 11:11:06;;;;;;;23.37;14.67;;;2.50;99.90;;;;;;5056058;28;20179;-48
2022/01/15 11:13:37;;;;;;;18.43;11.43;;;2.60;99.90;;;;;;5055745;28;20667;-49
2022/01/15 11:16:14;;;;;;;18.47;11.37;;;2.60;99.90;;;;;;5038769;28;20227;-48
2022/01/15 11:18:43;;;;;;;17.53;10.47;;;2.60;99.90;;;;;;5037761;28;20178;-47
2022/01/15 11:21:18;;;;;;;20.37;13.30;;;2.60;99.90;;;;;;5036467;28;20211;-47
2022/01/15 11:23:46;;;;;;;24.50;14.47;;;2.70;99.90;;;;;;5037772;28;20190;-47
2022/01/15 11:26:39;;;;;;;;;;;;;;;;;;;;;
2022/01/15 11:29:07;;;;;;;18.33;11.10;;;2.70;99.90;;;;;;5055018;28;20192;-46
2022/01/15 11:31:37;;;;;;;21.30;13.80;;;2.70;99.90;;;;;;5037439;28;20202;-47
2022/01/15 11:34:06;;;;;;;28.53;15.50;;;2.80;99.90;;;;;;5037114;28;20241;-46
2022/01/15 11:36:39;;;;;;;26.60;15.13;;;2.80;99.90;;;;;;5055013;28;20281;-48
2022/01/15 11:39:11;;;;;;;29.33;16.40;;;2.80;99.90;;;;;;5055167;28;20164;-48
2022/01/15 11:41:41;;;;;;;25.63;15.63;;;2.90;99.90;;;;;;5037250;28;20649;-47
2022/01/15 11:44:20;;;;;;;24.57;14.10;;;2.90;99.90;;;;;;5037711;28;20588;-47
2022/01/15 11:46:54;;;;;;;12.73;7.27;;;2.90;99.90;;;;;;5051153;28;20212;-46
2022/01/15 11:49:40;;;;;;;29.27;17.13;;;2.90;99.90;;;;;;5049511;28;20182;-47
2022/01/15 11:52:11;;;;;;;25.43;15.93;;;2.90;99.90;;;;;;5038299;28;20183;-48
2022/01/15 11:54:40;;;;;;;27.67;16.23;;;2.90;99.90;;;;;;5038510;28;20203;-47
2022/01/15 11:57:32;;;;;;;19.93;11.90;;;2.90;99.90;;;;;;5037293;28;20337;-45
2022/01/15 12:00:05;;;;;;;28.70;16.83;;;3.00;99.90;;;;;;5037153;28;20171;-47
2022/01/15 12:02:33;;;;;;;29.67;17.23;;;3.00;99.90;;;;;;5037464;28;20221;-47
2022/01/15 12:05:14;;;;;;;23.37;14.90;;;3.00;99.90;;;;;;5036994;28;20176;-47
2022/01/15 12:07:41;;;;;;;24.13;15.90;;;2.90;99.90;;;;;;5036964;28;20176;-47
2022/01/15 12:10:11;;;;;;;27.20;16.70;;;2.90;99.90;;;;;;5036851;28;20215;-48
2022/01/15 12:12:43;;;;;;;26.53;14.90;;;2.90;99.90;;;;;;5054730;28;20189;-47
2022/01/15 12:15:11;;;;;;;24.23;13.70;;;3.00;99.90;;;;;;5036633;28;20178;-46
2022/01/15 12:17:47;;;;;;;29.40;16.47;;;3.00;99.90;;;;;;5037104;28;20543;-47
2022/01/15 12:20:21;;;;;;;22.93;14.93;;;3.00;99.90;;;;;;5054999;28;20164;-48
2022/01/15 12:22:48;;;;;;;27.43;16.67;;;3.00;99.90;;;;;;5054770;28;20191;-46
2022/01/15 12:25:16;;;;;;;22.17;14.27;;;3.00;99.90;;;;;;5054253;28;20234;-48
2022/01/15 12:27:46;;;;;;;25.93;16.97;;;3.00;99.90;;;;;;5036491;28;20524;-47
2022/01/15 12:30:19;;;;;;;30.63;19.27;;;3.10;99.90;;;;;;5054788;28;20176;-47
2022/01/15 12:32:49;;;;;;;24.97;16.70;;;3.10;99.90;;;;;;5036357;28;20212;-47
2022/01/15 12:35:22;;;;;;;24.60;17.40;;;3.10;99.90;;;;;;5054103;28;20191;-48
2022/01/15 12:38:02;;;;;;;26.87;17.47;;;3.10;99.90;;;;;;5036316;28;20266;-46
2022/01/15 12:40:30;;;;;;;19.93;12.43;;;3.10;99.90;;;;;;5054342;28;20168;-48
2022/01/15 12:42:57;;;;;;;26.63;16.60;;;3.10;99.90;;;;;;5036137;28;20180;-47
2022/01/15 12:45:27;;;;;;;27.03;16.00;;;3.10;99.90;;;;;;5035930;28;20231;-47
2022/01/15 12:47:53;;;;;;;24.50;15.43;;;3.10;99.90;;;;;;5053978;28;20176;-47
2022/01/15 12:50:19;;;;;;;25.13;15.13;;;3.10;99.90;;;;;;5036057;28;20579;-47
2022/01/15 12:52:45;;;;;;;29.93;18.07;;;3.10;99.90;;;;;;5054027;28;20179;-47
2022/01/15 12:55:11;;;;;;;28.80;18.37;;;3.00;99.90;;;;;;5019535;28;20176;-47
2022/01/15 12:57:47;;;;;;;30.77;17.73;;;3.00;99.90;;;;;;5036382;28;20183;-46
2022/01/15 13:00:25;;;;;;;24.90;15.83;;;3.10;99.90;;;;;;5036854;28;20658;-47
2022/01/15 13:03:06;;;;;;;22.93;13.27;;;3.10;99.90;;;;;;5021093;28;20196;-47
2022/01/15 13:05:37;;;;;;;30.40;18.97;;;3.10;99.90;;;;;;5036611;28;20230;-48
2022/01/15 13:08:06;;;;;;;19.97;12.50;;;3.10;99.90;;;;;;5054798;28;20248;-46
2022/01/15 13:10:50;;;;;;;18.33;10.60;;;3.10;99.90;;;;;;5055003;28;20191;-48